createdAt,value
2022-08-30T00:01:06.709Z,-11449.09
2022-08-30T00:04:14.332Z,-11447.69
2022-08-30T00:07:20.561Z,-11445.44
2022-08-30T00:10:28.824Z,-11435.00
2022-08-30T00:13:35.743Z,-11445.16
2022-08-30T00:16:42.172Z,-11446.69
2022-08-30T00:19:49.856Z,-11432.47
2022-08-30T00:22:56.088Z,-11439.50
2022-08-30T00:26:03.007Z,-11441.91
2022-08-30T00:29:09.350Z,-11427.81
2022-08-30T00:32:16.375Z,-11422.88
2022-08-30T00:35:25.286Z,-11422.59
2022-08-30T00:38:31.895Z,-11429.09
2022-08-30T00:41:38.406Z,-11442.34
2022-08-30T00:44:46.127Z,-11436.13
2022-08-30T00:47:52.925Z,-11442.34
2022-08-30T00:51:03.600Z,-11444.88
2022-08-30T00:54:10.106Z,-11440.50
2022-08-30T00:57:17.222Z,-11443.75
2022-08-30T01:00:24.024Z,-11444.72
2022-08-30T01:03:32.599Z,-11444.31
2022-08-30T01:06:40.736Z,-11442.34
2022-08-30T01:09:47.532Z,-11441.06
2022-08-30T01:12:54.203Z,-11437.25
2022-08-30T01:16:01.164Z,-11433.59
2022-08-30T01:19:19.731Z,-11441.19
2022-08-30T01:22:40.716Z,-11445.44
2022-08-30T01:25:54.333Z,-11444.59
2022-08-30T01:29:05.506Z,-11445.16
2022-08-30T01:32:21.184Z,-11446.56
2022-08-30T01:35:29.813Z,-11450.94
2022-08-30T01:38:38.610Z,-11448.53
2022-08-30T01:41:46.711Z,-11450.22
2022-08-30T01:44:53.611Z,-11444.31
2022-08-30T01:48:01.654Z,-11437.41
2022-08-30T01:51:13.523Z,-11444.88
2022-08-30T01:54:19.823Z,-11438.09
2022-08-30T01:57:28.411Z,-11438.25
2022-08-30T02:00:35.252Z,-11442.34
2022-08-30T02:03:42.313Z,-11442.63
2022-08-30T02:06:49.291Z,-11434.56
2022-08-30T02:09:56.950Z,-11443.59
2022-08-30T02:13:05.442Z,-11443.47
2022-08-30T02:16:16.231Z,-11422.16
2022-08-30T02:19:22.467Z,-11409.63
2022-08-30T02:22:28.888Z,-11419.91
2022-08-30T02:25:35.585Z,-11414.41
2022-08-30T02:28:50.044Z,-11409.91
2022-08-30T02:31:56.593Z,-11414.97
2022-08-30T02:35:02.700Z,-11418.09
2022-08-30T02:38:09.610Z,-11416.25
2022-08-30T02:41:16.272Z,-11410.75
2022-08-30T02:44:23.981Z,-11411.59
2022-08-30T02:47:30.375Z,-11401.72
2022-08-30T02:50:36.425Z,-11398.63
2022-08-30T02:53:44.716Z,-11410.47
2022-08-30T02:56:51.787Z,-11395.25
2022-08-30T02:59:59.685Z,-11390.75
2022-08-30T03:03:07.574Z,-11396.25
2022-08-30T03:06:14.059Z,-11400.88
2022-08-30T03:09:20.495Z,-11405.97
2022-08-30T03:12:26.769Z,-11408.50
2022-08-30T03:15:35.504Z,-11407.66
2022-08-30T03:18:43.293Z,-11398.06
2022-08-30T03:21:49.452Z,-11377.50
2022-08-30T03:24:58.107Z,-11377.63
2022-08-30T03:28:05.672Z,-11392.72
2022-08-30T03:31:13.834Z,-11381.44
2022-08-30T03:34:20.269Z,-11381.59
2022-08-30T03:37:27.684Z,-11380.19
2022-08-30T03:40:34.089Z,-11379.03
2022-08-30T03:43:40.417Z,-11381.44
2022-08-30T03:46:48.646Z,-11371.16
2022-08-30T03:49:54.859Z,-11365.81
2022-08-30T03:53:02.061Z,-11379.47
2022-08-30T03:56:08.760Z,-11396.66
2022-08-30T03:59:15.542Z,-11393.84
2022-08-30T04:02:23.586Z,-11395.41
2022-08-30T04:05:30.140Z,-11386.22
2022-08-30T04:08:37.228Z,-11368.91
2022-08-30T04:11:43.939Z,-11371.00
2022-08-30T04:14:50.541Z,-11367.22
2022-08-30T04:17:58.467Z,-11373.28
2022-08-30T04:21:05.615Z,-11360.31
2022-08-30T04:24:12.392Z,-11372.00
2022-08-30T04:27:20.498Z,-11380.31
2022-08-30T04:30:26.812Z,-11389.03
2022-08-30T04:33:35.722Z,-11385.09
2022-08-30T04:36:48.057Z,-11394.97
2022-08-30T04:39:57.580Z,-11401.16
2022-08-30T04:43:04.218Z,-11407.50
2022-08-30T04:46:13.963Z,-11407.78
2022-08-30T04:49:22.999Z,-11407.38
2022-08-30T04:52:30.600Z,-11416.66
2022-08-30T04:55:37.544Z,-11419.22
2022-08-30T04:58:43.656Z,-11418.50
2022-08-30T05:01:50.140Z,-11419.91
2022-08-30T05:05:11.580Z,-11437.69
2022-08-30T05:08:24.755Z,-11423.59
2022-08-30T05:11:31.803Z,-11416.94
2022-08-30T05:14:38.435Z,-11412.16
2022-08-30T05:17:44.952Z,-11413.28
2022-08-30T05:20:52.465Z,-11430.06
2022-08-30T05:24:01.118Z,-11421.19
2022-08-30T05:27:07.703Z,-11432.19
2022-08-30T05:30:14.916Z,-11431.19
2022-08-30T05:33:20.972Z,-11445.16
2022-08-30T05:36:31.145Z,-11444.59
2022-08-30T05:39:50.941Z,-11445.84
2022-08-30T05:42:57.959Z,-11441.47
2022-08-30T05:46:06.641Z,-11453.19
2022-08-30T05:49:13.160Z,-11465.44
2022-08-30T05:52:20.979Z,-11473.63
2022-08-30T05:55:27.191Z,-11475.91
2022-08-30T05:58:34.107Z,-11495.06
2022-08-30T06:01:42.403Z,-11496.63
2022-08-30T06:04:48.850Z,-11504.94
2022-08-30T06:07:57.191Z,-11512.13
2022-08-30T06:11:03.627Z,-11510.31
2022-08-30T06:14:10.343Z,-11519.47
2022-08-30T06:17:16.756Z,-11497.31
2022-08-30T06:20:23.501Z,-11505.22
2022-08-30T06:23:31.779Z,-11520.88
2022-08-30T06:26:40.858Z,-11535.13
2022-08-30T06:29:47.821Z,-11528.38
2022-08-30T06:32:54.227Z,-11528.94
2022-08-30T06:36:05.940Z,-11536.84
2022-08-30T06:39:14.082Z,-11550.66
2022-08-30T06:42:20.618Z,-11550.94
2022-08-30T06:45:27.071Z,-11540.22
2022-08-30T06:48:33.423Z,-11551.78
2022-08-30T06:51:41.264Z,-11554.06
2022-08-30T06:54:49.939Z,-11568.44
2022-08-30T06:57:57.530Z,-11559.97
2022-08-30T07:01:04.128Z,-11567.19
2022-08-30T07:04:10.712Z,-11563.06
2022-08-30T07:07:17.001Z,-11565.75
2022-08-30T07:10:24.561Z,-11580.72
2022-08-30T07:13:31.375Z,-11591.88
2022-08-30T07:16:38.099Z,-11602.31
2022-08-30T07:19:43.514Z,-11606.13
2022-08-30T07:22:50.465Z,-11589.19
2022-08-30T07:25:58.520Z,-11602.31
2022-08-30T07:29:06.487Z,-11608.81
2022-08-30T07:32:13.071Z,-11597.22
2022-08-30T07:35:19.575Z,-11613.91
2022-08-30T07:38:26.081Z,-11607.53
2022-08-30T07:41:39.723Z,-11608.81
2022-08-30T07:44:46.413Z,-11620.94
2022-08-30T07:47:52.988Z,-11612.75
2022-08-30T07:51:04.501Z,-11618.97
2022-08-30T07:54:11.379Z,-11629.16
2022-08-30T07:57:19.551Z,-11642.00
2022-08-30T08:00:25.974Z,-11634.22
2022-08-30T08:03:32.617Z,-11641.84
2022-08-30T08:06:41.181Z,-11643.41
2022-08-30T08:09:47.875Z,-11632.81
2022-08-30T08:12:55.479Z,-11655.97
2022-08-30T08:16:02.009Z,-11653.16
2022-08-30T08:19:10.043Z,-11671.50
2022-08-30T08:22:21.369Z,-11674.03
2022-08-30T08:25:28.578Z,-11679.84
2022-08-30T08:28:38.490Z,-11680.81
2022-08-30T08:31:46.847Z,-11682.25
2022-08-30T08:34:52.975Z,-11684.78
2022-08-30T08:37:59.262Z,-11695.78
2022-08-30T08:41:11.723Z,-11691.84
2022-08-30T08:44:33.806Z,-11672.63
2022-08-30T08:47:43.420Z,-11684.50
2022-08-30T08:51:04.650Z,-11680.25
2022-08-30T08:54:16.092Z,-11679.84
2022-08-30T08:57:24.690Z,-11708.50
2022-08-30T09:00:34.065Z,-11691.97
2022-08-30T09:03:40.791Z,-11683.66
2022-08-30T09:06:54.468Z,-11664.72
2022-08-30T09:10:01.713Z,-11647.66
2022-08-30T09:13:07.911Z,-11664.88
2022-08-30T09:16:49.083Z,-11657.94
2022-08-30T09:20:01.188Z,-11648.22
2022-08-30T09:23:24.075Z,-11646.22
2022-08-30T09:26:33.503Z,-11631.53
2022-08-30T09:29:52.327Z,-11632.97
2022-08-30T09:33:02.887Z,-11641.41
2022-08-30T09:36:22.545Z,-11634.22
2022-08-30T09:39:32.752Z,-11647.50
2022-08-30T09:42:39.826Z,-11657.53
2022-08-30T09:45:50.471Z,-11652.03
2022-08-30T09:49:00.822Z,-11644.94
2022-08-30T09:52:18.229Z,-11648.63
2022-08-30T09:55:50.657Z,-11644.53
2022-08-30T09:59:07.288Z,-11655.97
2022-08-30T10:02:45.127Z,-11653.16
2022-08-30T10:06:00.159Z,-11646.78
2022-08-30T10:09:21.025Z,-11659.06
2022-08-30T10:12:33.766Z,-11659.63
2022-08-30T10:15:47.785Z,-11670.09
2022-08-30T10:19:06.350Z,-11664.44
2022-08-30T10:22:18.151Z,-11681.09
2022-08-30T10:25:30.207Z,-11671.50
2022-08-30T10:28:43.920Z,-11656.25
2022-08-30T10:32:00.222Z,-11648.91
2022-08-30T10:35:11.085Z,-11651.75
2022-08-30T10:38:25.889Z,-11656.53
2022-08-30T10:41:39.196Z,-11651.59
2022-08-30T10:44:48.098Z,-11646.78
2022-08-30T10:48:01.611Z,-11652.03
2022-08-30T10:51:11.675Z,-11648.22
2022-08-30T10:54:24.921Z,-11641.00
2022-08-30T10:57:31.620Z,-11641.84
2022-08-30T11:00:43.665Z,-11640.44
2022-08-30T11:04:21.960Z,-11644.38
2022-08-30T11:07:39.696Z,-11651.75
2022-08-30T11:11:00.660Z,-11642.13
2022-08-30T11:14:11.511Z,-11656.97
2022-08-30T11:17:30.710Z,-11667.28
2022-08-30T11:20:41.512Z,-11671.22
2022-08-30T11:24:01.278Z,-11664.88
2022-08-30T11:27:11.288Z,-11683.94
2022-08-30T11:30:52.995Z,-11698.63
2022-08-30T11:34:01.203Z,-11686.75
2022-08-30T11:37:10.396Z,-11681.38
2022-08-30T11:40:53.471Z,-11665.16
2022-08-30T11:44:27.947Z,-11673.06
2022-08-30T11:47:44.955Z,-11674.31
2022-08-30T11:50:56.564Z,-11667.00
2022-08-30T11:54:09.527Z,-11660.22
2022-08-30T11:57:27.556Z,-11679.00
2022-08-30T12:00:39.798Z,-11656.53
2022-08-30T12:03:56.425Z,-11661.06
2022-08-30T12:07:05.749Z,-11659.91
2022-08-30T12:10:25.746Z,-11658.78
2022-08-30T12:13:54.941Z,-11649.06
2022-08-30T12:17:21.123Z,-11651.88
2022-08-30T12:20:32.096Z,-11655.81
2022-08-30T12:23:49.759Z,-11664.16
2022-08-30T12:26:58.331Z,-11675.59
2022-08-30T12:30:08.671Z,-11664.03
2022-08-30T12:33:29.100Z,-11664.03
2022-08-30T12:36:39.731Z,-11680.25
2022-08-30T12:39:47.287Z,-11682.53
2022-08-30T12:43:02.898Z,-11699.91
2022-08-30T12:46:16.207Z,-11696.66
2022-08-30T12:49:28.236Z,-11723.47
2022-08-30T12:52:38.948Z,-11716.72
2022-08-30T12:55:54.172Z,-11716.13
2022-08-30T12:59:00.688Z,-11697.91
2022-08-30T13:02:20.357Z,-11691.41
2022-08-30T13:05:48.244Z,-11663.59
2022-08-30T13:08:55.672Z,-11655.97
2022-08-30T13:12:03.293Z,-11632.37
2022-08-30T13:15:18.249Z,-11619.97
2022-08-30T13:18:30.119Z,-11623.50
2022-08-30T13:21:51.683Z,-11578.03
2022-08-30T13:24:58.267Z,-11552.06
2022-08-30T13:28:06.439Z,-11541.63
2022-08-30T13:31:12.954Z,-11536.12
2022-08-30T13:34:22.442Z,-11532.03
2022-08-30T13:37:50.027Z,-11533.03
2022-08-30T13:40:57.302Z,-11534.44
2022-08-30T13:44:13.431Z,-11517.63
2022-08-30T13:47:37.301Z,-11523.28
2022-08-30T13:50:44.236Z,-11515.09
2022-08-30T13:53:53.361Z,-11509.75
2022-08-30T13:57:00.626Z,-11505.22
2022-08-30T14:00:12.245Z,-11511.72
2022-08-30T14:03:19.027Z,-11519.34
2022-08-30T14:06:33.715Z,-11521.44
2022-08-30T14:09:42.308Z,-11520.31
2022-08-30T14:13:00.825Z,-11500.72
2022-08-30T14:16:29.524Z,-11482.81
2022-08-30T14:19:36.114Z,-11476.31
2022-08-30T14:22:42.695Z,-11466.59
2022-08-30T14:25:50.452Z,-11480.13
2022-08-30T14:28:57.316Z,-11475.06
2022-08-30T14:32:06.046Z,-11457.84
2022-08-30T14:35:12.259Z,-11468.00
2022-08-30T14:38:18.919Z,-11464.19
2022-08-30T14:41:26.611Z,-11469.13
2022-08-30T14:44:54.819Z,-11475.63
2022-08-30T14:48:02.813Z,-11494.50
2022-08-30T14:51:17.732Z,-11495.50
2022-08-30T14:54:26.995Z,-11507.50
2022-08-30T14:57:35.070Z,-11515.81
2022-08-30T15:00:41.491Z,-11497.88
2022-08-30T15:03:48.239Z,-11498.03
2022-08-30T15:06:55.230Z,-11508.91
2022-08-30T15:10:01.727Z,-11500.28
2022-08-30T15:13:09.687Z,-11520.31
2022-08-30T15:16:18.219Z,-11516.66
2022-08-30T15:19:24.551Z,-11515.66
2022-08-30T15:22:30.754Z,-11517.94
2022-08-30T15:25:37.159Z,-11520.88
2022-08-30T15:28:50.575Z,-11516.50
2022-08-30T15:31:57.052Z,-11516.94
2022-08-30T15:35:04.370Z,-11503.81
2022-08-30T15:38:10.551Z,-11496.91
2022-08-30T15:41:18.954Z,-11491.41
2022-08-30T15:44:26.636Z,-11491.25
2022-08-30T15:47:33.192Z,-11486.75
2022-08-30T15:50:40.366Z,-11488.31
2022-08-30T15:53:47.669Z,-11492.81
2022-08-30T15:56:59.582Z,-11492.81
2022-08-30T16:00:09.444Z,-11487.31
2022-08-30T16:03:15.591Z,-11484.63
2022-08-30T16:06:24.411Z,-11490.00
2022-08-30T16:09:32.585Z,-11485.19
2022-08-30T16:12:38.994Z,-11490.28
2022-08-30T16:15:46.623Z,-11490.28
2022-08-30T16:18:55.266Z,-11492.81
2022-08-30T16:22:02.638Z,-11488.72
2022-08-30T16:25:09.567Z,-11488.44
2022-08-30T16:28:18.018Z,-11488.31
2022-08-30T16:31:27.026Z,-11485.47
2022-08-30T16:34:33.876Z,-11488.31
2022-08-30T16:37:40.003Z,-11484.50
2022-08-30T16:40:46.374Z,-11478.72
2022-08-30T16:43:53.737Z,-11479.97
2022-08-30T16:47:01.689Z,-11480.53
2022-08-30T16:50:08.786Z,-11469.13
2022-08-30T16:53:15.661Z,-11471.66
2022-08-30T16:56:25.142Z,-11471.66
2022-08-30T16:59:33.155Z,-11461.66
2022-08-30T17:02:42.749Z,-11456.72
2022-08-30T17:06:00.100Z,-11467.84
2022-08-30T17:09:08.000Z,-11465.44
2022-08-30T17:12:14.436Z,-11456.72
2022-08-30T17:15:22.242Z,-11459.81
2022-08-30T17:18:30.319Z,-11461.38
2022-08-30T17:21:37.234Z,-11472.78
2022-08-30T17:24:46.445Z,-11466.31
2022-08-30T17:27:52.922Z,-11468.28
2022-08-30T17:30:59.569Z,-11468.56
2022-08-30T17:34:07.583Z,-11470.09
2022-08-30T17:37:14.040Z,-11461.38
2022-08-30T17:40:21.019Z,-11465.72
2022-08-30T17:43:27.451Z,-11462.22
2022-08-30T17:46:36.787Z,-11463.91
2022-08-30T17:49:44.675Z,-11470.38
2022-08-30T17:52:51.492Z,-11466.00
2022-08-30T17:55:58.591Z,-11461.50
2022-08-30T17:59:08.148Z,-11459.25
2022-08-30T18:02:16.227Z,-11458.69
2022-08-30T18:05:31.034Z,-11461.22
2022-08-30T18:08:40.456Z,-11457.28
2022-08-30T18:11:46.630Z,-11454.88
2022-08-30T18:14:54.708Z,-11453.34
2022-08-30T18:18:01.036Z,-11451.50
2022-08-30T18:21:16.195Z,-11454.19
2022-08-30T18:24:23.125Z,-11452.34
2022-08-30T18:27:29.693Z,-11444.88
2022-08-30T18:30:39.980Z,-11447.69
2022-08-30T18:33:49.096Z,-11447.13
2022-08-30T18:36:57.532Z,-11447.69
2022-08-30T18:40:04.486Z,-11447.97
2022-08-30T18:43:10.924Z,-11450.22
2022-08-30T18:46:19.131Z,-11451.50
2022-08-30T18:49:25.961Z,-11444.03
2022-08-30T18:52:34.092Z,-11442.34
2022-08-30T18:55:42.373Z,-11448.25
2022-08-30T18:58:48.867Z,-11439.66
2022-08-30T19:01:55.318Z,-11439.94
2022-08-30T19:05:01.988Z,-11443.75
2022-08-30T19:08:09.976Z,-11447.69
2022-08-30T19:11:16.351Z,-11442.34
2022-08-30T19:14:23.323Z,-11445.16
2022-08-30T19:17:34.821Z,-11440.91
2022-08-30T19:20:41.102Z,-11437.41
2022-08-30T19:23:54.877Z,-11436.69
2022-08-30T19:27:01.471Z,-11443.47
2022-08-30T19:30:09.815Z,-11438.94
2022-08-30T19:33:17.524Z,-11442.19
2022-08-30T19:36:24.514Z,-11423.31
2022-08-30T19:39:33.300Z,-11414.41
2022-08-30T19:42:46.028Z,-11429.50
2022-08-30T19:45:55.769Z,-11431.06
2022-08-30T19:49:04.354Z,-11428.81
2022-08-30T19:52:11.234Z,-11433.72
2022-08-30T19:55:19.656Z,-11427.53
2022-08-30T19:58:35.102Z,-11416.09
2022-08-30T20:01:42.507Z,-11407.50
2022-08-30T20:04:51.788Z,-11418.66
2022-08-30T20:07:58.383Z,-11429.38
2022-08-30T20:11:07.152Z,-11427.94
2022-08-30T20:14:15.315Z,-11427.38
2022-08-30T20:17:22.132Z,-11427.38
2022-08-30T20:20:28.845Z,-11424.28
2022-08-30T20:23:35.787Z,-11425.13
2022-08-30T20:26:43.542Z,-11427.94
2022-08-30T20:29:49.640Z,-11419.78
2022-08-30T20:32:56.214Z,-11427.38
2022-08-30T20:36:03.795Z,-11424.84
2022-08-30T20:39:10.535Z,-11431.06
2022-08-30T20:42:26.238Z,-11429.50
2022-08-30T20:45:34.791Z,-11435.28
2022-08-30T20:48:41.890Z,-11426.97
2022-08-30T20:51:52.853Z,-11424.28
2022-08-30T20:55:00.878Z,-11424.00
2022-08-30T20:58:08.568Z,-11417.66
2022-08-30T21:01:17.238Z,-11413.44
2022-08-30T21:04:23.860Z,-11411.59
2022-08-30T21:07:30.479Z,-11399.06
2022-08-30T21:10:36.839Z,-11394.41
2022-08-30T21:13:45.660Z,-11399.06
2022-08-30T21:16:52.137Z,-11389.91
2022-08-30T21:19:59.099Z,-11377.63
2022-08-30T21:23:05.827Z,-11385.94
2022-08-30T21:26:12.287Z,-11385.38
2022-08-30T21:29:20.154Z,-11389.34
2022-08-30T21:32:26.387Z,-11387.34
2022-08-30T21:35:49.871Z,-11384.81
2022-08-30T21:39:00.732Z,-11393.41
2022-08-30T21:42:07.547Z,-11400.88
2022-08-30T21:45:16.692Z,-11393.00
2022-08-30T21:48:23.313Z,-11406.94
2022-08-30T21:51:30.539Z,-11400.19
2022-08-30T21:54:37.019Z,-11403.44
2022-08-30T21:57:43.597Z,-11412.44
2022-08-30T22:00:51.998Z,-11410.19
2022-08-30T22:04:00.902Z,-11413.28
2022-08-30T22:07:08.414Z,-11420.06
2022-08-30T22:10:14.972Z,-11414.00
2022-08-30T22:13:21.034Z,-11411.88
2022-08-30T22:16:29.418Z,-11412.88
2022-08-30T22:19:36.036Z,-11408.22
2022-08-30T22:22:42.691Z,-11409.63
2022-08-30T22:25:51.232Z,-11416.81
2022-08-30T22:28:57.680Z,-11416.94
2022-08-30T22:32:06.090Z,-11416.25
2022-08-30T22:35:12.567Z,-11422.44
2022-08-30T22:38:19.035Z,-11401.16
2022-08-30T22:41:31.458Z,-11422.03
2022-08-30T22:44:38.225Z,-11410.91
2022-08-30T22:47:46.043Z,-11400.88
2022-08-30T22:50:52.170Z,-11399.19
2022-08-30T22:53:58.758Z,-11395.81
2022-08-30T22:57:04.899Z,-11409.06
2022-08-30T23:00:15.738Z,-11413.84
2022-08-30T23:03:23.707Z,-11405.69
2022-08-30T23:06:30.759Z,-11411.88
2022-08-30T23:09:37.002Z,-11395.53
2022-08-30T23:12:43.172Z,-11395.97
2022-08-30T23:15:49.358Z,-11400.75
2022-08-30T23:18:56.918Z,-11400.59
2022-08-30T23:22:03.418Z,-11397.50
2022-08-30T23:25:28.120Z,-11408.34
2022-08-30T23:28:55.567Z,-11419.22
2022-08-30T23:32:19.411Z,-11413.56
2022-08-30T23:35:44.581Z,-11412.16
2022-08-30T23:39:08.463Z,-11412.59
2022-08-30T23:42:33.675Z,-11411.31
2022-08-30T23:45:57.920Z,-11413.84
2022-08-30T23:49:21.676Z,-11417.78
2022-08-30T23:52:46.645Z,-11421.47
2022-08-30T23:56:10.339Z,-11421.47
2022-08-30T23:59:35.351Z,-11425.56
